Time;durP1;ratioP1;P1;durP2;ratioP2;P2;SDS_P1;SDS_P2;PMS_P1;PMS_P2;Temp;Humidity;BMP_temperature;BMP_pressure;BME280_temperature;BME280_humidity;BME280_pressure;Samples;Min_cycle;Max_cycle;Signal;HPM_P1;HPM_P2
2022/09/08 00:00:46;;;;;;;;;1.00;1.00;;;;;;;;5021571;28;8804;-75
2022/09/08 00:03:15;;;;;;;;;1.75;1.75;;;;;;;;5021426;28;8860;-75
2022/09/08 00:05:48;;;;;;;;;0.75;0.75;;;;;;;;5024821;28;8869;-75
2022/09/08 00:08:20;;;;;;;;;3.00;1.00;;;;;;;;5025305;28;8856;-76
2022/09/08 00:10:50;;;;;;;;;1.00;1.00;;;;;;;;5024395;28;8882;-76
2022/09/08 00:13:18;;;;;;;;;4.75;2.00;;;;;;;;5025917;28;9014;-75
2022/09/08 00:15:46;;;;;;;;;1.75;1.75;;;;;;;;5024967;28;9467;-75
2022/09/08 00:18:13;;;;;;;;;3.75;1.00;;;;;;;;5016961;28;8856;-75
2022/09/08 00:20:41;;;;;;;;;3.00;3.00;;;;;;;;5024970;28;8954;-75
2022/09/08 00:23:10;;;;;;;;;2.00;2.00;;;;;;;;5025563;28;8868;-75
2022/09/08 00:25:37;;;;;;;;;5.00;3.25;;;;;;;;5008926;28;8836;-76
2022/09/08 00:28:04;;;;;;;;;4.25;2.75;;;;;;;;5024824;28;8880;-76
2022/09/08 00:30:31;;;;;;;;;3.25;2.50;;;;;;;;5024686;28;8807;-76
2022/09/08 00:32:59;;;;;;;;;2.25;2.25;;;;;;;;5010709;28;8871;-76
2022/09/08 00:35:26;;;;;;;;;5.75;4.00;;;;;;;;5023336;28;8884;-76
2022/09/08 00:37:54;;;;;;;;;6.25;4.25;;;;;;;;5024329;28;8941;-77
2022/09/08 00:40:24;;;;;;;;;5.50;3.00;;;;;;;;5025109;28;8868;-76
2022/09/08 00:42:59;;;;;;;;;3.75;3.75;;;;;;;;5025243;28;8872;-77
2022/09/08 00:45:28;;;;;;;;;4.75;4.50;;;;;;;;5022456;28;8918;-77
2022/09/08 00:47:59;;;;;;;;;5.50;5.50;;;;;;;;5025263;28;8891;-76
2022/09/08 00:50:28;;;;;;;;;5.25;4.50;;;;;;;;5023964;28;8872;-76
2022/09/08 00:53:00;;;;;;;;;4.75;4.25;;;;;;;;5008035;28;8960;-76
2022/09/08 00:55:30;;;;;;;;;5.00;5.00;;;;;;;;5024243;28;8872;-76
2022/09/08 00:57:58;;;;;;;;;5.75;5.00;;;;;;;;5025253;28;8901;-76
2022/09/08 01:00:25;;;;;;;;;3.75;3.75;;;;;;;;5024350;28;8781;-76
2022/09/08 01:02:53;;;;;;;;;6.50;4.00;;;;;;;;5023222;28;8887;-76
2022/09/08 01:05:21;;;;;;;;;6.50;5.75;;;;;;;;5024533;28;8942;-76
2022/09/08 01:13:40;;;;;;;;;7.00;5.50;;;;;;;;5024898;28;8837;-76
2022/09/08 01:16:08;;;;;;;;;5.00;5.00;;;;;;;;5022206;28;8971;-76
2022/09/08 01:18:36;;;;;;;;;5.00;5.00;;;;;;;;5024676;28;8863;-76
2022/09/08 01:21:13;;;;;;;;;5.00;5.00;;;;;;;;5036796;28;9022;-76
2022/09/08 01:23:59;;;;;;;;;4.75;4.75;;;;;;;;5024103;28;8950;-76
2022/09/08 01:26:49;;;;;;;;;3.25;3.25;;;;;;;;5022607;28;8864;-75
2022/09/08 01:29:20;;;;;;;;;5.25;4.00;;;;;;;;5018979;28;8873;-75
2022/09/08 01:31:49;;;;;;;;;5.50;4.00;;;;;;;;5024260;28;8839;-75
2022/09/08 01:34:16;;;;;;;;;7.75;4.00;;;;;;;;5012445;28;8924;-75
2022/09/08 01:36:44;;;;;;;;;4.00;4.00;;;;;;;;5023845;28;8872;-75
2022/09/08 01:39:11;;;;;;;;;5.00;5.00;;;;;;;;5023804;28;8860;-75
2022/09/08 01:41:38;;;;;;;;;5.25;4.00;;;;;;;;5011583;28;8876;-75
2022/09/08 01:44:06;;;;;;;;;4.75;4.75;;;;;;;;5022338;28;8869;-77
2022/09/08 01:46:35;;;;;;;;;6.25;4.50;;;;;;;;5022414;28;9439;-76
2022/09/08 01:49:02;;;;;;;;;4.75;4.75;;;;;;;;5024183;28;8899;-77
2022/09/08 01:51:29;;;;;;;;;5.50;5.00;;;;;;;;5022785;28;8864;-78
2022/09/08 01:53:58;;;;;;;;;4.75;4.75;;;;;;;;5024113;28;8945;-77
2022/09/08 01:56:25;;;;;;;;;4.25;4.25;;;;;;;;5023020;28;9643;-77
2022/09/08 01:58:52;;;;;;;;;4.75;3.75;;;;;;;;5023292;28;9009;-77
2022/09/08 02:01:20;;;;;;;;;5.00;5.00;;;;;;;;5022800;28;8829;-77
2022/09/08 02:03:48;;;;;;;;;6.00;4.75;;;;;;;;5022378;28;8886;-75
2022/09/08 02:06:16;;;;;;;;;4.75;3.00;;;;;;;;5006295;28;8873;-75
2022/09/08 02:08:43;;;;;;;;;6.00;6.00;;;;;;;;5022470;28;8979;-76
2022/09/08 02:11:11;;;;;;;;;3.75;3.75;;;;;;;;5022055;28;8853;-76
2022/09/08 02:13:38;;;;;;;;;3.75;3.75;;;;;;;;5017152;28;9009;-75
2022/09/08 02:16:07;;;;;;;;;4.75;3.00;;;;;;;;5021523;28;8906;-75
2022/09/08 02:18:35;;;;;;;;;5.00;4.25;;;;;;;;5024062;28;8856;-76
2022/09/08 02:21:09;;;;;;;;;6.00;4.50;;;;;;;;5022561;28;8896;-75
2022/09/08 02:23:37;;;;;;;;;3.75;3.75;;;;;;;;5023444;28;8987;-76
2022/09/08 02:26:05;;;;;;;;;3.25;3.25;;;;;;;;5022564;28;8889;-75
2022/09/08 02:28:32;;;;;;;;;3.75;3.75;;;;;;;;5023167;28;8884;-75
2022/09/08 02:31:00;;;;;;;;;4.50;3.00;;;;;;;;5022037;28;8987;-75
2022/09/08 02:33:28;;;;;;;;;3.25;3.25;;;;;;;;5022186;28;8885;-75
2022/09/08 02:35:55;;;;;;;;;3.00;3.00;;;;;;;;5010064;28;8880;-75
2022/09/08 02:38:25;;;;;;;;;6.00;4.00;;;;;;;;5021839;28;8999;-76
2022/09/08 02:40:52;;;;;;;;;2.75;2.75;;;;;;;;5023384;28;8893;-77
2022/09/08 02:43:20;;;;;;;;;4.00;4.00;;;;;;;;5022407;28;8907;-77
2022/09/08 02:45:47;;;;;;;;;4.00;4.00;;;;;;;;5023206;28;8880;-75
2022/09/08 02:48:15;;;;;;;;;4.25;4.00;;;;;;;;5022347;28;8883;-75
2022/09/08 02:50:43;;;;;;;;;3.25;3.25;;;;;;;;5021227;28;8903;-76
2022/09/08 02:53:11;;;;;;;;;4.25;3.25;;;;;;;;5023581;28;8845;-75
2022/09/08 02:55:40;;;;;;;;;4.75;4.00;;;;;;;;5004088;28;8881;-77
2022/09/08 02:58:08;;;;;;;;;4.50;4.50;;;;;;;;5023657;28;8884;-76
2022/09/08 03:00:36;;;;;;;;;4.75;4.75;;;;;;;;5021118;28;8809;-76
2022/09/08 03:03:04;;;;;;;;;5.50;5.00;;;;;;;;5023119;28;9020;-75
2022/09/08 03:05:31;;;;;;;;;3.75;3.75;;;;;;;;5021911;28;8883;-76
2022/09/08 03:08:02;;;;;;;;;3.50;3.50;;;;;;;;5013958;28;9685;-76
2022/09/08 03:10:29;;;;;;;;;5.00;3.50;;;;;;;;5010924;28;8864;-75
2022/09/08 03:12:58;;;;;;;;;3.75;3.75;;;;;;;;5022064;28;8907;-76
2022/09/08 03:15:27;;;;;;;;;7.00;5.00;;;;;;;;5022411;28;8888;-75
2022/09/08 03:17:55;;;;;;;;;5.00;3.00;;;;;;;;5021178;28;8884;-76
2022/09/08 03:20:22;;;;;;;;;5.50;5.50;;;;;;;;5022325;28;8998;-76
2022/09/08 03:22:50;;;;;;;;;3.00;3.00;;;;;;;;5022252;28;8896;-76
2022/09/08 03:25:19;;;;;;;;;5.00;3.75;;;;;;;;5022063;28;8898;-76
2022/09/08 03:27:46;;;;;;;;;2.00;2.00;;;;;;;;5023158;28;8852;-75
2022/09/08 03:30:17;;;;;;;;;3.00;3.00;;;;;;;;5020906;28;8907;-75
2022/09/08 03:32:46;;;;;;;;;2.00;2.00;;;;;;;;5022422;28;8899;-76
2022/09/08 03:35:15;;;;;;;;;3.00;3.00;;;;;;;;5021232;28;8888;-76
2022/09/08 03:37:45;;;;;;;;;2.00;2.00;;;;;;;;5022805;28;8860;-75
2022/09/08 03:40:14;;;;;;;;;3.00;3.00;;;;;;;;5023454;28;8868;-74
2022/09/08 03:42:43;;;;;;;;;3.25;3.25;;;;;;;;5017505;28;8890;-75
2022/09/08 03:45:17;;;;;;;;;5.00;3.50;;;;;;;;5026345;28;8857;-75
2022/09/08 03:47:45;;;;;;;;;3.25;3.25;;;;;;;;5024976;28;8864;-75
2022/09/08 03:50:13;;;;;;;;;4.25;3.50;;;;;;;;5025186;28;8856;-76
2022/09/08 03:52:41;;;;;;;;;2.25;2.25;;;;;;;;5028563;28;8876;-76
2022/09/08 03:55:09;;;;;;;;;2.00;2.00;;;;;;;;5026321;28;9623;-76
2022/09/08 03:57:37;;;;;;;;;1.50;1.50;;;;;;;;5025130;28;8857;-75
2022/09/08 04:00:06;;;;;;;;;5.75;4.00;;;;;;;;5019405;28;8896;-76
2022/09/08 04:02:35;;;;;;;;;3.00;3.00;;;;;;;;5025639;28;9603;-76
2022/09/08 04:05:03;;;;;;;;;6.00;4.25;;;;;;;;5025385;28;8876;-77
2022/09/08 04:07:31;;;;;;;;;1.00;1.00;;;;;;;;5026315;28;8880;-76
2022/09/08 04:09:59;;;;;;;;;2.00;2.00;;;;;;;;5019478;28;9258;-77
2022/09/08 04:12:26;;;;;;;;;1.00;1.00;;;;;;;;5026124;28;8860;-77
2022/09/08 04:14:54;;;;;;;;;1.75;1.75;;;;;;;;5024738;28;8879;-76
2022/09/08 04:17:22;;;;;;;;;2.75;2.75;;;;;;;;5022442;28;8872;-76
2022/09/08 04:19:51;;;;;;;;;1.00;1.00;;;;;;;;5026664;28;8853;-76
2022/09/08 04:22:21;;;;;;;;;2.00;2.00;;;;;;;;5024533;28;8877;-76
2022/09/08 04:24:48;;;;;;;;;3.25;2.00;;;;;;;;5025397;28;8873;-76
2022/09/08 04:27:15;;;;;;;;;4.00;3.50;;;;;;;;5024706;28;8860;-76
2022/09/08 04:29:43;;;;;;;;;2.25;2.25;;;;;;;;5008609;28;8877;-76
2022/09/08 04:32:10;;;;;;;;;4.75;4.75;;;;;;;;5023173;28;8882;-76
2022/09/08 04:34:39;;;;;;;;;2.75;2.75;;;;;;;;5025679;28;8978;-77
2022/09/08 04:37:07;;;;;;;;;4.25;4.25;;;;;;;;5025022;28;8861;-77
2022/09/08 04:39:35;;;;;;;;;3.50;3.50;;;;;;;;5024771;28;8853;-75
2022/09/08 04:42:02;;;;;;;;;4.75;4.75;;;;;;;;5025558;28;9650;-76
2022/09/08 04:44:29;;;;;;;;;3.00;3.00;;;;;;;;5007429;28;8880;-75
2022/09/08 04:46:57;;;;;;;;;3.00;3.00;;;;;;;;5024798;28;8934;-75
2022/09/08 04:49:24;;;;;;;;;2.00;2.00;;;;;;;;5023733;28;8876;-75
2022/09/08 04:51:52;;;;;;;;;5.75;4.25;;;;;;;;5024503;28;8880;-75
2022/09/08 04:54:22;;;;;;;;;3.00;3.00;;;;;;;;5009031;28;8876;-76
2022/09/08 04:56:49;;;;;;;;;3.50;3.50;;;;;;;;5013112;28;8864;-76
2022/09/08 04:59:17;;;;;;;;;2.25;2.25;;;;;;;;5024776;28;8880;-76
2022/09/08 05:01:45;;;;;;;;;3.50;3.50;;;;;;;;5022869;28;8859;-76
2022/09/08 05:04:12;;;;;;;;;4.75;4.75;;;;;;;;5024438;28;9642;-76
2022/09/08 05:06:40;;;;;;;;;5.00;5.00;;;;;;;;5007318;28;8892;-76
2022/09/08 05:09:07;;;;;;;;;3.00;3.00;;;;;;;;5025128;28;9723;-76
2022/09/08 05:11:36;;;;;;;;;5.00;5.00;;;;;;;;5023819;28;8919;-75
2022/09/08 05:14:04;;;;;;;;;4.75;3.75;;;;;;;;5024219;28;9009;-76
2022/09/08 05:16:33;;;;;;;;;3.75;2.50;;;;;;;;5023787;28;9058;-75
2022/09/08 05:19:02;;;;;;;;;4.00;4.00;;;;;;;;5023031;28;8876;-76
2022/09/08 05:21:32;;;;;;;;;3.00;3.00;;;;;;;;5023807;28;8881;-76
2022/09/08 05:24:00;;;;;;;;;4.25;3.25;;;;;;;;5022486;28;8896;-76
2022/09/08 05:26:28;;;;;;;;;2.00;2.00;;;;;;;;5024477;28;10082;-76
2022/09/08 05:28:57;;;;;;;;;3.00;3.00;;;;;;;;5024273;28;9696;-75
2022/09/08 05:31:27;;;;;;;;;3.00;2.50;;;;;;;;5023044;28;8836;-76
2022/09/08 05:33:56;;;;;;;;;3.00;3.00;;;;;;;;5024338;28;8844;-76
2022/09/08 05:36:25;;;;;;;;;4.25;4.25;;;;;;;;5022700;28;8895;-76
2022/09/08 05:38:52;;;;;;;;;2.50;2.50;;;;;;;;5023880;28;8907;-74
2022/09/08 05:41:20;;;;;;;;;2.25;2.25;;;;;;;;5016899;28;8959;-76
2022/09/08 05:43:47;;;;;;;;;4.00;4.00;;;;;;;;5024013;28;8869;-77
2022/09/08 05:46:16;;;;;;;;;2.25;2.25;;;;;;;;5021738;28;8868;-77
2022/09/08 05:48:44;;;;;;;;;4.75;4.75;;;;;;;;5020339;28;9580;-75
2022/09/08 05:51:11;;;;;;;;;3.50;3.50;;;;;;;;5025433;28;8886;-74
2022/09/08 05:53:39;;;;;;;;;5.00;5.00;;;;;;;;5022109;28;9784;-74
2022/09/08 05:56:08;;;;;;;;;3.00;3.00;;;;;;;;5023516;28;8880;-73
2022/09/08 05:58:36;;;;;;;;;4.00;4.00;;;;;;;;5021363;28;8892;-73
2022/09/08 06:01:05;;;;;;;;;4.00;4.00;;;;;;;;5020507;28;8813;-75
2022/09/08 06:03:34;;;;;;;;;5.50;5.50;;;;;;;;5021756;28;8880;-75
2022/09/08 06:06:04;;;;;;;;;5.00;5.00;;;;;;;;5024223;28;9643;-73
2022/09/08 06:08:31;;;;;;;;;3.00;3.00;;;;;;;;5023196;28;8863;-75
2022/09/08 06:10:58;;;;;;;;;4.75;4.75;;;;;;;;5022267;28;8876;-73
2022/09/08 06:13:26;;;;;;;;;4.75;4.00;;;;;;;;5023112;28;8859;-73
2022/09/08 06:15:53;;;;;;;;;5.00;5.00;;;;;;;;5021233;28;10222;-73
2022/09/08 06:18:21;;;;;;;;;2.75;2.75;;;;;;;;5022632;28;8900;-73
2022/09/08 06:20:49;;;;;;;;;7.25;6.00;;;;;;;;5022581;28;9017;-72
2022/09/08 06:23:17;;;;;;;;;6.00;6.00;;;;;;;;5023194;28;8856;-74
2022/09/08 06:25:46;;;;;;;;;6.00;6.00;;;;;;;;5022740;28;8876;-74
2022/09/08 06:28:26;;;;;;;;;4.50;4.50;;;;;;;;5020381;28;8860;-73
2022/09/08 06:30:56;;;;;;;;;5.00;5.00;;;;;;;;5003599;28;8913;-72
2022/09/08 06:33:31;;;;;;;;;5.75;5.25;;;;;;;;5020169;28;8922;-72
2022/09/08 06:36:11;;;;;;;;;6.25;5.00;;;;;;;;5022694;28;8868;-72
2022/09/08 06:38:44;;;;;;;;;6.25;6.25;;;;;;;;5021259;28;8880;-72
2022/09/08 06:41:13;;;;;;;;;7.50;5.50;;;;;;;;5022145;28;8892;-73
2022/09/08 06:43:43;;;;;;;;;5.00;5.00;;;;;;;;5021898;28;9666;-74
2022/09/08 06:46:19;;;;;;;;;4.75;4.75;;;;;;;;5019776;28;8872;-74
2022/09/08 06:48:46;;;;;;;;;2.00;2.00;;;;;;;;5000104;28;8877;-74
2022/09/08 06:51:28;;;;;;;;;6.75;5.75;;;;;;;;5016662;28;8877;-74
2022/09/08 06:54:06;;;;;;;;;7.00;5.75;;;;;;;;5023526;28;8997;-74
2022/09/08 06:56:42;;;;;;;;;0.75;0.00;;;;;;;;5010478;28;8915;-76
2022/09/08 06:59:15;;;;;;;;;4.50;4.00;;;;;;;;5018799;28;10156;-75
2022/09/08 07:01:48;;;;;;;;;5.25;5.25;;;;;;;;5021989;28;8817;-74
2022/09/08 07:04:22;;;;;;;;;5.75;5.75;;;;;;;;5021211;28;8850;-75
2022/09/08 07:06:56;;;;;;;;;5.75;5.75;;;;;;;;5020634;28;8898;-77
2022/09/08 07:09:34;;;;;;;;;8.75;6.75;;;;;;;;5019202;28;8864;-75
2022/09/08 07:12:16;;;;;;;;;9.50;6.75;;;;;;;;5021149;28;8916;-75
2022/09/08 07:14:53;;;;;;;;;5.25;4.75;;;;;;;;5024391;28;8898;-77
2022/09/08 07:17:22;;;;;;;;;4.25;4.25;;;;;;;;5025087;28;8856;-76
2022/09/08 07:19:51;;;;;;;;;7.00;5.25;;;;;;;;5027570;28;8877;-76
2022/09/08 07:22:31;;;;;;;;;4.25;4.25;;;;;;;;5022397;28;8874;-76
2022/09/08 07:25:09;;;;;;;;;7.00;4.50;;;;;;;;5024589;28;8914;-73
2022/09/08 07:27:40;;;;;;;;;3.75;3.75;;;;;;;;5025177;28;8884;-74
2022/09/08 07:30:12;;;;;;;;;5.50;5.50;;;;;;;;5015371;28;8875;-74
2022/09/08 07:32:44;;;;;;;;;3.00;3.00;;;;;;;;5024460;28;9944;-75
2022/09/08 07:35:18;;;;;;;;;5.00;5.00;;;;;;;;5006286;28;8903;-73
2022/09/08 07:37:49;;;;;;;;;4.50;4.50;;;;;;;;5027338;28;8873;-75
2022/09/08 07:40:19;;;;;;;;;5.00;5.00;;;;;;;;5023659;28;10483;-72
2022/09/08 07:42:50;;;;;;;;;3.50;3.00;;;;;;;;5029049;28;8934;-72
2022/09/08 07:45:18;;;;;;;;;4.50;4.50;;;;;;;;5028613;28;8934;-71
2022/09/08 07:47:59;;;;;;;;;5.25;4.00;;;;;;;;5024949;28;8883;-72
2022/09/08 07:50:53;;;;;;;;;3.50;3.50;;;;;;;;5026286;28;8880;-72
2022/09/08 07:53:40;;;;;;;;;6.00;4.75;;;;;;;;5020251;28;8842;-74
2022/09/08 07:56:14;;;;;;;;;5.00;3.00;;;;;;;;5020205;28;9587;-73
2022/09/08 07:58:50;;;;;;;;;3.75;3.75;;;;;;;;5021666;28;8991;-72
2022/09/08 08:01:26;;;;;;;;;3.00;3.00;;;;;;;;5024885;28;8801;-72
2022/09/08 08:04:00;;;;;;;;;6.00;5.00;;;;;;;;5014885;28;8986;-72
2022/09/08 08:06:37;;;;;;;;;5.75;4.25;;;;;;;;5002170;28;8880;-72
2022/09/08 08:09:16;;;;;;;;;3.25;3.00;;;;;;;;5025381;28;8982;-73
2022/09/08 08:11:51;;;;;;;;;4.00;3.00;;;;;;;;5018281;28;8892;-72
2022/09/08 08:14:27;;;;;;;;;5.00;2.00;;;;;;;;5020755;28;8893;-72
2022/09/08 08:17:02;;;;;;;;;3.00;3.00;;;;;;;;5025518;28;8892;-75
2022/09/08 08:19:45;;;;;;;;;2.75;2.00;;;;;;;;5024942;28;8872;-74
2022/09/08 08:22:19;;;;;;;;;2.00;2.00;;;;;;;;5024679;28;8914;-76
2022/09/08 08:24:54;;;;;;;;;2.00;2.00;;;;;;;;5019507;28;8905;-74
2022/09/08 08:27:29;;;;;;;;;2.00;2.00;;;;;;;;5025194;28;9642;-74
2022/09/08 08:30:07;;;;;;;;;4.00;3.00;;;;;;;;5024360;28;8894;-73
2022/09/08 08:32:38;;;;;;;;;2.00;2.00;;;;;;;;5025321;28;8873;-74
2022/09/08 08:35:12;;;;;;;;;2.50;2.50;;;;;;;;5024548;28;9101;-73
2022/09/08 08:37:41;;;;;;;;;3.50;2.00;;;;;;;;5025573;28;8872;-74
2022/09/08 08:40:29;;;;;;;;;3.00;3.00;;;;;;;;5013291;28;8868;-74
2022/09/08 08:43:10;;;;;;;;;2.75;2.00;;;;;;;;5020905;28;8877;-74
2022/09/08 08:45:49;;;;;;;;;3.00;3.00;;;;;;;;5025342;28;8852;-73
2022/09/08 08:48:31;;;;;;;;;3.75;3.00;;;;;;;;5024056;28;8879;-74
2022/09/08 08:51:18;;;;;;;;;3.50;3.50;;;;;;;;5023157;28;8870;-74
2022/09/08 08:54:17;;;;;;;;;2.25;2.25;;;;;;;;5021659;28;8859;-72
2022/09/08 08:56:47;;;;;;;;;4.00;4.00;;;;;;;;5023204;28;8914;-72
2022/09/08 08:59:43;;;;;;;;;4.25;2.75;;;;;;;;5030579;28;8948;-73
2022/09/08 09:02:29;;;;;;;;;3.00;3.00;;;;;;;;5019282;28;8817;-74
2022/09/08 09:05:15;;;;;;;;;2.00;2.00;;;;;;;;5023088;28;8898;-73
2022/09/08 09:08:13;;;;;;;;;3.50;2.50;;;;;;;;5021427;28;8913;-73
2022/09/08 09:10:54;;;;;;;;;2.75;2.75;;;;;;;;5018170;28;8994;-74
2022/09/08 09:14:13;;;;;;;;;4.75;3.50;;;;;;;;5023750;28;8930;-72
2022/09/08 09:17:00;;;;;;;;;4.00;4.00;;;;;;;;4982921;28;8889;-73
2022/09/08 09:20:01;;;;;;;;;3.75;3.75;;;;;;;;4977875;28;9658;-74
2022/09/08 09:22:37;;;;;;;;;1.50;1.50;;;;;;;;4988775;28;8904;-72
2022/09/08 09:25:14;;;;;;;;;4.00;2.75;;;;;;;;5019904;28;8876;-74
2022/09/08 09:27:44;;;;;;;;;3.20;3.20;;;;;;;;5016141;28;9734;-74
2022/09/08 09:30:23;;;;;;;;;4.00;4.00;;;;;;;;5023939;28;9073;-74
2022/09/08 09:33:24;;;;;;;;;4.00;3.25;;;;;;;;5012090;28;9696;-74
2022/09/08 09:36:29;;;;;;;;;3.00;3.00;;;;;;;;5022704;28;8876;-73
2022/09/08 09:39:34;;;;;;;;;3.00;3.00;;;;;;;;4962642;28;8863;-75
2022/09/08 09:42:47;;;;;;;;;3.00;3.00;;;;;;;;4992760;28;8868;-74
2022/09/08 09:45:51;;;;;;;;;3.50;3.50;;;;;;;;5018963;28;8867;-74
2022/09/08 09:48:51;;;;;;;;;4.20;3.00;;;;;;;;5006819;28;9019;-74
2022/09/08 09:51:41;;;;;;;;;6.00;3.00;;;;;;;;5023015;28;8865;-74
2022/09/08 09:54:21;;;;;;;;;5.00;4.00;;;;;;;;5019503;28;8903;-74
2022/09/08 09:57:33;;;;;;;;;5.00;3.40;;;;;;;;5019889;28;8868;-76
2022/09/08 10:00:17;;;;;;;;;6.00;3.40;;;;;;;;4961878;28;8868;-74
2022/09/08 10:03:19;;;;;;;;;4.20;3.40;;;;;;;;4954389;28;8829;-74
2022/09/08 10:06:26;;;;;;;;;4.60;3.00;;;;;;;;5014614;28;8896;-73
2022/09/08 10:09:38;;;;;;;;;5.40;3.20;;;;;;;;5018941;28;8884;-74
2022/09/08 10:12:33;;;;;;;;;3.00;3.00;;;;;;;;5018634;28;9011;-74
2022/09/08 10:15:33;;;;;;;;;2.00;2.00;;;;;;;;5019904;28;8872;-74
2022/09/08 10:18:38;;;;;;;;;4.40;2.00;;;;;;;;5020797;28;9946;-76
2022/09/08 10:21:33;;;;;;;;;3.75;2.00;;;;;;;;5019222;28;8895;-72
2022/09/08 10:24:28;;;;;;;;;2.50;2.50;;;;;;;;5010905;28;9854;-75
2022/09/08 10:27:38;;;;;;;;;4.40;2.80;;;;;;;;5022711;28;8877;-74
2022/09/08 10:30:14;;;;;;;;;4.00;2.60;;;;;;;;5015570;28;8872;-72
2022/09/08 10:33:12;;;;;;;;;2.20;2.00;;;;;;;;5001053;28;8887;-73
2022/09/08 10:35:41;;;;;;;;;4.00;2.20;;;;;;;;4998882;28;8902;-73
2022/09/08 10:38:21;;;;;;;;;2.00;2.00;;;;;;;;5003115;28;8885;-71
2022/09/08 10:41:06;;;;;;;;;3.00;1.60;;;;;;;;5002125;28;8870;-71
2022/09/08 10:44:05;;;;;;;;;6.20;2.00;;;;;;;;5008799;28;8882;-72
2022/09/08 10:47:00;;;;;;;;;1.20;1.20;;;;;;;;4997350;28;8870;-72
2022/09/08 10:49:49;;;;;;;;;2.00;2.00;;;;;;;;4989278;28;8883;-74
2022/09/08 10:52:44;;;;;;;;;3.80;2.00;;;;;;;;4991803;28;8870;-74
2022/09/08 10:55:33;;;;;;;;;3.20;2.40;;;;;;;;5007913;28;9749;-71
2022/09/08 10:58:34;;;;;;;;;1.20;1.20;;;;;;;;5010776;28;8883;-74
2022/09/08 11:01:28;;;;;;;;;1.00;1.00;;;;;;;;5002238;28;8792;-72
2022/09/08 11:04:17;;;;;;;;;3.20;2.00;;;;;;;;5012030;28;8872;-72
2022/09/08 11:07:00;;;;;;;;;2.20;2.20;;;;;;;;5019562;28;8887;-72
2022/09/08 11:09:40;;;;;;;;;3.40;2.00;;;;;;;;5022836;28;8865;-72
2022/09/08 11:12:34;;;;;;;;;3.00;3.00;;;;;;;;5021921;28;8896;-73
2022/09/08 11:15:33;;;;;;;;;4.00;3.20;;;;;;;;5022438;28;8892;-72
2022/09/08 11:18:21;;;;;;;;;2.00;2.00;;;;;;;;4976342;28;8889;-72
2022/09/08 11:20:51;;;;;;;;;3.00;2.00;;;;;;;;5012644;28;8941;-74
2022/09/08 11:23:27;;;;;;;;;1.60;1.60;;;;;;;;5021908;28;8935;-73
2022/09/08 11:26:21;;;;;;;;;1.00;1.00;;;;;;;;5022617;28;8864;-73
2022/09/08 11:28:58;;;;;;;;;4.60;3.00;;;;;;;;5013151;28;9063;-73
2022/09/08 11:31:51;;;;;;;;;1.60;1.60;;;;;;;;5021861;28;8849;-73
2022/09/08 11:34:37;;;;;;;;;1.20;1.20;;;;;;;;5017860;28;8884;-73
2022/09/08 11:37:51;;;;;;;;;1.20;1.20;;;;;;;;5020168;28;8872;-73
2022/09/08 11:40:51;;;;;;;;;1.80;1.80;;;;;;;;4936253;28;9402;-72
2022/09/08 11:43:37;;;;;;;;;3.20;1.40;;;;;;;;4940080;28;9866;-72
2022/09/08 11:46:20;;;;;;;;;2.00;1.80;;;;;;;;5004133;28;8875;-72
2022/09/08 11:49:18;;;;;;;;;1.40;1.40;;;;;;;;5022493;28;8897;-73
2022/09/08 11:51:56;;;;;;;;;2.60;1.00;;;;;;;;5013973;28;9650;-73
2022/09/08 11:54:42;;;;;;;;;1.00;1.00;;;;;;;;5020432;28;8900;-73
2022/09/08 11:57:24;;;;;;;;;2.00;1.00;;;;;;;;5022172;28;8983;-72
2022/09/08 12:00:04;;;;;;;;;1.80;1.80;;;;;;;;5021657;28;9711;-74
2022/09/08 12:03:00;;;;;;;;;1.40;1.40;;;;;;;;5025385;28;8821;-73
2022/09/08 12:05:32;;;;;;;;;1.80;1.80;;;;;;;;5025067;28;8848;-73
2022/09/08 12:08:33;;;;;;;;;4.40;1.00;;;;;;;;5024578;28;8876;-73
2022/09/08 12:11:11;;;;;;;;;1.60;1.60;;;;;;;;4998391;28;8942;-72
2022/09/08 12:13:45;;;;;;;;;2.00;2.00;;;;;;;;5020080;28;8999;-73
2022/09/08 12:16:36;;;;;;;;;0.60;0.60;;;;;;;;5025083;28;8857;-73
2022/09/08 12:19:21;;;;;;;;;1.00;1.00;;;;;;;;5025300;28;8856;-73
2022/09/08 12:22:06;;;;;;;;;3.60;2.40;;;;;;;;5023839;28;9026;-73
2022/09/08 12:24:46;;;;;;;;;2.40;1.60;;;;;;;;5025369;28;8904;-73
2022/09/08 12:27:22;;;;;;;;;1.00;1.00;;;;;;;;5025432;28;9258;-73
2022/09/08 12:30:04;;;;;;;;;3.60;1.00;;;;;;;;5022571;28;8892;-73
2022/09/08 12:33:01;;;;;;;;;1.40;1.40;;;;;;;;5024374;28;8836;-73
2022/09/08 12:35:35;;;;;;;;;0.80;0.80;;;;;;;;5015106;28;8873;-72
2022/09/08 12:38:34;;;;;;;;;0.80;0.80;;;;;;;;5024456;28;8881;-72
2022/09/08 12:41:27;;;;;;;;;3.80;1.20;;;;;;;;5024884;28;8896;-73
2022/09/08 12:44:02;;;;;;;;;0.80;0.80;;;;;;;;5024216;28;8899;-72
2022/09/08 12:46:41;;;;;;;;;3.00;1.40;;;;;;;;5018207;28;8876;-73
2022/09/08 12:49:25;;;;;;;;;0.80;0.80;;;;;;;;5024491;28;8903;-72
2022/09/08 12:51:59;;;;;;;;;1.00;1.00;;;;;;;;5008327;28;8975;-73
2022/09/08 12:54:52;;;;;;;;;1.00;1.00;;;;;;;;5024033;28;8882;-73
2022/09/08 12:57:44;;;;;;;;;1.20;0.60;;;;;;;;5021328;28;8935;-72
2022/09/08 13:00:22;;;;;;;;;0.00;0.00;;;;;;;;5023571;28;8872;-73
2022/09/08 13:03:31;;;;;;;;;0.00;0.00;;;;;;;;5025871;28;8926;-72
2022/09/08 13:06:53;;;;;;;;;0.60;0.60;;;;;;;;5022240;28;8884;-72
2022/09/08 13:09:32;;;;;;;;;0.80;0.80;;;;;;;;4995760;28;8915;-71
2022/09/08 13:12:37;;;;;;;;;2.80;0.80;;;;;;;;5023343;28;8853;-73
2022/09/08 13:15:20;;;;;;;;;0.00;0.00;;;;;;;;4961666;28;8875;-72
2022/09/08 13:17:51;;;;;;;;;1.00;1.00;;;;;;;;5016654;28;8868;-73
2022/09/08 13:20:22;;;;;;;;;1.80;0.80;;;;;;;;5021678;28;8884;-73
2022/09/08 13:23:08;;;;;;;;;0.40;0.40;;;;;;;;5024197;28;8860;-73
2022/09/08 13:25:44;;;;;;;;;0.00;0.00;;;;;;;;5013168;28;8864;-73
2022/09/08 13:28:34;;;;;;;;;1.20;0.80;;;;;;;;5021979;28;8889;-73
2022/09/08 13:31:12;;;;;;;;;0.20;0.20;;;;;;;;5007221;28;9625;-72
2022/09/08 13:34:04;;;;;;;;;0.40;0.40;;;;;;;;5016751;28;8857;-73
2022/09/08 13:36:57;;;;;;;;;0.00;0.00;;;;;;;;4994014;28;9011;-73
2022/09/08 13:39:55;;;;;;;;;1.80;1.00;;;;;;;;5020888;28;9508;-74
2022/09/08 13:42:34;;;;;;;;;0.00;0.00;;;;;;;;5022640;28;9650;-73
2022/09/08 13:45:35;;;;;;;;;1.00;1.00;;;;;;;;5005394;28;8905;-73
2022/09/08 13:48:41;;;;;;;;;0.40;0.40;;;;;;;;5011452;28;8876;-73
2022/09/08 13:51:33;;;;;;;;;0.00;0.00;;;;;;;;4992494;28;8881;-72
2022/09/08 13:54:36;;;;;;;;;1.00;0.40;;;;;;;;5015943;28;8868;-71
2022/09/08 13:57:37;;;;;;;;;1.80;0.80;;;;;;;;4980090;28;9741;-72
2022/09/08 14:00:09;;;;;;;;;0.00;0.00;;;;;;;;5023438;28;9435;-73
2022/09/08 14:02:44;;;;;;;;;0.80;0.80;;;;;;;;5022257;28;8932;-74
2022/09/08 14:05:21;;;;;;;;;0.20;0.20;;;;;;;;5022019;28;8864;-77
2022/09/08 14:07:51;;;;;;;;;0.80;0.80;;;;;;;;5020963;28;8882;-74
2022/09/08 14:10:26;;;;;;;;;0.00;0.00;;;;;;;;5022469;28;8916;-76
2022/09/08 14:12:55;;;;;;;;;1.40;0.00;;;;;;;;5021814;28;9269;-73
2022/09/08 14:15:28;;;;;;;;;0.40;0.40;;;;;;;;5018345;28;9017;-74
2022/09/08 14:18:31;;;;;;;;;0.80;0.80;;;;;;;;5020762;28;8903;-75
2022/09/08 14:21:01;;;;;;;;;0.00;0.00;;;;;;;;5013139;28;8868;-75
2022/09/08 14:23:51;;;;;;;;;0.20;0.20;;;;;;;;5021553;28;9015;-74
2022/09/08 14:26:33;;;;;;;;;0.20;0.20;;;;;;;;5022767;28;8884;-74
2022/09/08 14:29:17;;;;;;;;;0.60;0.60;;;;;;;;5019425;28;9070;-73
2022/09/08 14:31:55;;;;;;;;;0.80;0.80;;;;;;;;5021279;28;8841;-75
2022/09/08 14:34:30;;;;;;;;;1.40;0.80;;;;;;;;5006194;28;9019;-73
2022/09/08 14:37:03;;;;;;;;;0.60;0.60;;;;;;;;5016270;28;8885;-72
2022/09/08 14:39:37;;;;;;;;;0.80;0.80;;;;;;;;5021989;28;8856;-72
2022/09/08 14:42:22;;;;;;;;;0.20;0.20;;;;;;;;5019124;28;8873;-73
2022/09/08 14:45:00;;;;;;;;;0.00;0.00;;;;;;;;5022510;28;8860;-73
2022/09/08 14:47:31;;;;;;;;;1.20;0.00;;;;;;;;5021571;28;8891;-75
2022/09/08 14:50:11;;;;;;;;;1.80;0.60;;;;;;;;5019680;28;8853;-73
2022/09/08 14:52:57;;;;;;;;;0.00;0.00;;;;;;;;5021892;28;8861;-73
2022/09/08 14:55:29;;;;;;;;;0.00;0.00;;;;;;;;5020993;28;8876;-73
2022/09/08 14:58:17;;;;;;;;;1.60;0.20;;;;;;;;5022090;28;9006;-74
2022/09/08 15:00:47;;;;;;;;;1.00;0.20;;;;;;;;5019027;28;8829;-74
2022/09/08 15:03:19;;;;;;;;;0.60;0.60;;;;;;;;5021567;28;8995;-73
2022/09/08 15:05:48;;;;;;;;;0.00;0.00;;;;;;;;5022228;28;8857;-73
2022/09/08 15:08:21;;;;;;;;;0.20;0.20;;;;;;;;5021414;28;8877;-73
2022/09/08 15:10:58;;;;;;;;;1.00;0.60;;;;;;;;5022742;28;8876;-74
2022/09/08 15:13:26;;;;;;;;;2.60;0.60;;;;;;;;5019899;28;8915;-74
2022/09/08 15:16:18;;;;;;;;;2.00;0.00;;;;;;;;5008178;28;8904;-75
2022/09/08 15:18:52;;;;;;;;;0.40;0.40;;;;;;;;5019472;28;8848;-73
2022/09/08 15:21:22;;;;;;;;;0.20;0.20;;;;;;;;5013296;28;8881;-73
2022/09/08 15:23:51;;;;;;;;;2.60;0.80;;;;;;;;5013558;28;8905;-74
2022/09/08 15:26:28;;;;;;;;;1.60;1.60;;;;;;;;5021010;28;8884;-74
2022/09/08 15:29:32;;;;;;;;;1.00;0.00;;;;;;;;5022320;28;8887;-75
2022/09/08 15:32:10;;;;;;;;;0.60;0.60;;;;;;;;5005163;28;8935;-71
2022/09/08 15:34:39;;;;;;;;;0.00;0.00;;;;;;;;5008474;28;8928;-74
2022/09/08 15:37:24;;;;;;;;;0.00;0.00;;;;;;;;5021565;28;8857;-76
2022/09/08 15:40:01;;;;;;;;;0.00;0.00;;;;;;;;5022439;28;8868;-73
2022/09/08 15:42:42;;;;;;;;;1.00;0.00;;;;;;;;5022029;28;8981;-74
2022/09/08 15:45:21;;;;;;;;;0.00;0.00;;;;;;;;5011055;28;8938;-78
2022/09/08 15:48:06;;;;;;;;;0.00;0.00;;;;;;;;5024564;28;8950;-78
2022/09/08 15:50:45;;;;;;;;;0.00;0.00;;;;;;;;5026214;28;8880;-80
2022/09/08 15:53:46;;;;;;;;;1.60;0.40;;;;;;;;5024293;28;8879;-77
2022/09/08 15:56:26;;;;;;;;;3.60;0.20;;;;;;;;5002146;28;8902;-80
2022/09/08 15:59:08;;;;;;;;;2.00;0.00;;;;;;;;5026351;28;8863;-80
2022/09/08 16:01:46;;;;;;;;;0.00;0.00;;;;;;;;5024408;28;8811;-77